Stuart, Oklahoma
Current Conditions -  °F | °C
As of 9:53 AM on Wednesday 28 Jan 2015 (Local Time) from KMLC Reporting Station
Few Clouds Few Clouds  
Wind Chill: 64°   Ceiling: Unl
Heat Index: 64°   Visibility: 10mi
Dew Point: 40°   Wind: 14mph
Humidity: 41%   Direction: 180°S
Pressure: 30.1"   Gusts: 21mph
Location:  34.9°N, 96.1°W
Report Text: KMLC 281553Z AUTO 18012G18KT 10SM FEW120 18/04 A3010 RMK AO2 SLP187 T01780044
Loading
Personal Weather Stations






























Interactive Weather Map New forecast layout! Learn more

10-Day Weather Forecast

Advertisements
Track Severe Weather on mobile